Time;durP1;ratioP1;P1;durP2;ratioP2;P2;SDS_P1;SDS_P2;PMS_P1;PMS_P2;Temp;Humidity;BMP_temperature;BMP_pressure;BME280_temperature;BME280_humidity;BME280_pressure;Samples;Min_cycle;Max_cycle;Signal;HPM_P1;HPM_P2
2021/04/17 11:31:22;;;;;;;14.13;7.32;;;13.50;54.00;;;;;;4291592;27;20178;-74
2021/04/17 11:33:25;;;;;;;15.00;7.65;;;12.90;51.20;;;;;;4277670;27;20133;-69
2021/04/17 11:35:27;;;;;;;22.13;7.25;;;12.90;51.00;;;;;;4281896;27;20121;-73
2021/04/17 11:37:30;;;;;;;17.33;7.78;;;13.40;52.90;;;;;;4283586;27;20039;-74
2021/04/17 11:39:32;;;;;;;19.00;6.45;;;13.50;50.90;;;;;;4282635;27;20060;-75
2021/04/17 11:41:34;;;;;;;9.63;6.68;;;13.50;47.90;;;;;;4252556;27;20123;-69
2021/04/17 11:43:36;;;;;;;16.15;7.05;;;13.80;47.40;;;;;;4243713;27;20115;-73
2021/04/17 11:45:40;;;;;;;15.73;8.20;;;13.90;47.20;;;;;;4261938;27;20043;-71
2021/04/17 11:47:47;;;;;;;14.63;7.70;;;14.30;49.60;;;;;;4264464;27;20499;-74
2021/04/17 11:49:50;;;;;;;18.30;8.57;;;14.60;48.70;;;;;;4278481;27;20042;-74
2021/04/17 11:51:52;;;;;;;15.93;7.10;;;14.30;47.00;;;;;;4272206;27;20039;-76
2021/04/17 11:54:12;;;;;;;10.27;6.60;;;14.40;47.00;;;;;;4265759;27;20058;-75
2021/04/17 11:56:15;;;;;;;19.33;6.28;;;14.40;46.40;;;;;;4261188;27;20050;-71
2021/04/17 11:58:19;;;;;;;12.57;5.80;;;14.50;46.10;;;;;;4277496;27;20053;-79
2021/04/17 12:00:22;;;;;;;19.58;6.93;;;14.70;47.30;;;;;;4260788;27;20055;-71
2021/04/17 12:02:26;;;;;;;17.80;8.10;;;14.30;45.10;;;;;;4264539;27;20490;-76
2021/04/17 12:04:31;;;;;;;12.10;6.82;;;14.50;45.10;;;;;;4262128;27;20047;-75
2021/04/17 12:06:33;;;;;;;13.75;6.93;;;14.40;45.20;;;;;;4262396;27;20597;-70
2021/04/17 12:08:37;;;;;;;12.82;6.10;;;14.40;43.80;;;;;;4262614;27;20584;-69
2021/04/17 12:10:39;;;;;;;13.77;6.35;;;14.10;43.70;;;;;;4261812;27;20055;-71
2021/04/17 12:12:45;;;;;;;10.43;5.90;;;14.20;44.10;;;;;;4261638;27;20043;-72
2021/04/17 12:14:49;;;;;;;14.60;6.38;;;14.20;44.30;;;;;;4264237;27;20077;-68
2021/04/17 12:16:50;;;;;;;10.70;6.60;;;14.40;44.80;;;;;;4261316;27;20053;-66
2021/04/17 12:18:52;;;;;;;14.80;7.60;;;14.10;44.50;;;;;;4261115;27;20047;-65
2021/04/17 12:20:55;;;;;;;17.60;6.97;;;14.00;45.60;;;;;;4261565;27;20057;-66
2021/04/17 12:22:57;;;;;;;12.10;6.40;;;14.00;45.50;;;;;;4279494;27;20056;-65
2021/04/17 12:24:59;;;;;;;17.65;7.00;;;14.10;44.90;;;;;;4278338;27;20470;-67
2021/04/17 12:27:01;;;;;;;14.65;6.82;;;14.20;44.90;;;;;;4277812;27;20053;-73
2021/04/17 12:29:03;;;;;;;17.73;4.70;;;14.30;44.70;;;;;;4278837;27;20587;-67
2021/04/17 12:31:05;;;;;;;12.55;5.93;;;15.20;45.50;;;;;;4279084;27;20059;-68
2021/04/17 12:33:08;;;;;;;9.98;5.82;;;15.40;43.90;;;;;;4277927;27;20054;-64
2021/04/17 12:35:14;;;;;;;13.85;5.97;;;15.30;41.10;;;;;;4280698;27;20121;-65
2021/04/17 12:37:16;;;;;;;9.10;5.50;;;15.50;42.10;;;;;;4279929;27;20043;-65
2021/04/17 12:39:18;;;;;;;8.63;5.05;;;15.40;41.10;;;;;;4262711;27;20076;-70
2021/04/17 12:41:21;;;;;;;12.90;5.95;;;15.30;40.10;;;;;;4258358;27;20050;-70
2021/04/17 12:43:23;;;;;;;10.38;5.90;;;15.20;40.60;;;;;;4250142;27;20076;-65
2021/04/17 12:45:25;;;;;;;12.10;5.63;;;15.10;41.20;;;;;;4251357;27;20039;-64
2021/04/17 12:47:27;;;;;;;13.00;5.22;;;14.90;41.90;;;;;;4249739;27;20051;-64
2021/04/17 12:49:47;;;;;;;22.40;6.88;;;14.90;43.00;;;;;;4250134;27;20053;-64
2021/04/17 12:51:49;;;;;;;9.57;5.30;;;14.90;42.70;;;;;;4249828;27;20118;-65
2021/04/17 12:53:51;;;;;;;12.20;6.15;;;14.60;41.80;;;;;;4254550;27;20129;-64
2021/04/17 12:56:11;;;;;;;13.65;5.70;;;14.60;41.70;;;;;;4253334;27;20050;-65
2021/04/17 12:58:13;;;;;;;12.27;5.82;;;14.60;41.40;;;;;;4250352;27;20043;-66
2021/04/17 13:00:16;;;;;;;13.18;5.20;;;14.30;40.70;;;;;;4268166;27;20054;-65
2021/04/17 13:02:21;;;;;;;7.85;5.32;;;14.80;41.90;;;;;;4267089;27;20049;-69
2021/04/17 13:04:24;;;;;;;15.13;5.70;;;14.60;40.90;;;;;;4268310;27;20478;-66
2021/04/17 13:06:28;;;;;;;8.55;4.20;;;14.90;40.80;;;;;;4268180;27;20095;-72
2021/04/17 13:08:30;;;;;;;15.65;5.43;;;16.00;42.70;;;;;;4266914;27;20107;-66
2021/04/17 13:10:33;;;;;;;11.38;5.90;;;15.90;39.50;;;;;;4267711;27;20055;-65
2021/04/17 13:12:34;;;;;;;9.80;4.75;;;15.80;39.40;;;;;;4268043;27;20100;-65
2021/04/17 13:14:36;;;;;;;13.90;5.85;;;15.70;40.30;;;;;;4267832;27;20065;-69
2021/04/17 13:16:38;;;;;;;10.77;4.88;;;15.40;39.30;;;;;;4266510;27;20043;-66
2021/04/17 13:18:40;;;;;;;11.38;5.10;;;15.20;40.90;;;;;;4266089;27;20039;-66
2021/04/17 13:20:43;;;;;;;12.75;5.82;;;15.30;39.70;;;;;;4266088;27;20420;-64
2021/04/17 13:22:44;;;;;;;9.85;5.03;;;15.50;39.40;;;;;;4266038;27;20064;-67
2021/04/17 13:24:46;;;;;;;11.18;4.40;;;15.50;40.70;;;;;;4266975;27;20053;-64
2021/04/17 13:26:49;;;;;;;12.00;5.32;;;16.20;42.00;;;;;;4269291;27;20042;-77
2021/04/17 13:28:51;;;;;;;13.50;6.07;;;15.70;38.10;;;;;;4259320;27;20050;-74
2021/04/17 13:30:53;;;;;;;9.05;5.13;;;15.20;38.70;;;;;;4252334;27;20059;-66
2021/04/17 13:32:55;;;;;;;10.98;4.50;;;15.20;38.70;;;;;;4252033;27;20376;-64
2021/04/17 13:34:58;;;;;;;11.43;5.35;;;15.80;39.30;;;;;;4253846;27;20556;-72
2021/04/17 13:37:00;;;;;;;15.63;5.43;;;15.50;38.40;;;;;;4254657;27;20491;-65
2021/04/17 13:39:03;;;;;;;7.20;4.80;;;15.30;38.70;;;;;;4270484;27;20100;-65
2021/04/17 13:41:05;;;;;;;14.25;5.45;;;15.20;37.80;;;;;;4271085;27;20071;-64
2021/04/17 13:43:08;;;;;;;7.78;4.80;;;15.50;38.60;;;;;;4270856;27;20038;-71
2021/04/17 13:45:11;;;;;;;14.52;5.65;;;15.10;39.00;;;;;;4270468;27;20487;-65
2021/04/17 13:47:31;;;;;;;9.90;5.93;;;15.50;39.10;;;;;;4270422;27;20053;-65
2021/04/17 13:49:32;;;;;;;8.40;5.35;;;15.20;38.40;;;;;;4248968;27;20082;-66
2021/04/17 13:51:34;;;;;;;9.68;5.03;;;15.20;38.80;;;;;;4267827;27;20450;-71
2021/04/17 13:53:48;;;;;;;17.75;5.57;;;15.30;39.50;;;;;;4266976;27;20058;-64
2021/04/17 13:55:50;;;;;;;15.65;7.47;;;14.90;37.50;;;;;;4266972;27;20053;-64
2021/04/17 13:57:52;;;;;;;14.20;4.53;;;15.20;38.10;;;;;;4266969;27;20056;-77
2021/04/17 13:59:55;;;;;;;8.60;5.15;;;15.10;38.80;;;;;;4270877;27;20058;-69
2021/04/17 14:01:57;;;;;;;12.95;6.28;;;15.20;37.90;;;;;;4268169;27;20085;-65
2021/04/17 14:03:59;;;;;;;11.70;4.35;;;15.30;38.00;;;;;;4264714;27;20054;-65
2021/04/17 14:06:01;;;;;;;15.32;7.43;;;15.90;38.90;;;;;;4265439;27;20382;-65
2021/04/17 14:08:04;;;;;;;11.98;6.18;;;15.50;38.80;;;;;;4265196;27;20050;-65
2021/04/17 14:10:07;;;;;;;9.95;5.60;;;15.40;39.00;;;;;;4264592;27;20518;-64
2021/04/17 14:12:09;;;;;;;18.40;6.22;;;14.90;39.60;;;;;;4265329;27;20039;-64
2021/04/17 14:14:11;;;;;;;9.88;5.03;;;15.70;41.60;;;;;;4265003;27;20549;-65
2021/04/17 14:16:14;;;;;;;14.35;5.32;;;15.30;37.30;;;;;;4264612;27;20042;-65
2021/04/17 14:18:17;;;;;;;8.35;5.28;;;15.10;38.10;;;;;;4267579;27;20039;-64
2021/04/17 14:20:37;;;;;;;12.10;5.95;;;15.30;37.70;;;;;;4272003;27;20103;-66
2021/04/17 14:22:39;;;;;;;14.00;6.10;;;15.50;37.90;;;;;;4277577;27;20069;-66
2021/04/17 14:24:40;;;;;;;11.18;6.97;;;15.10;38.60;;;;;;4254240;27;20475;-68
2021/04/17 14:26:43;;;;;;;15.68;6.35;;;15.40;39.00;;;;;;4258822;27;20046;-66
2021/04/17 14:28:45;;;;;;;11.40;5.90;;;15.40;38.90;;;;;;4269168;27;20498;-66
2021/04/17 14:30:47;;;;;;;12.82;6.57;;;15.40;38.00;;;;;;4268480;27;20055;-65
2021/04/17 14:32:50;;;;;;;12.10;5.43;;;15.60;37.90;;;;;;4264139;27;20100;-68
2021/04/17 14:34:53;;;;;;;11.93;5.88;;;16.10;39.10;;;;;;4270913;27;20051;-68
2021/04/17 14:37:01;;;;;;;13.07;5.88;;;16.10;36.80;;;;;;4267679;27;20042;-65
2021/04/17 14:39:04;;;;;;;8.05;5.00;;;15.90;36.70;;;;;;4253809;27;20380;-68
2021/04/17 14:41:06;;;;;;;11.38;6.40;;;15.90;38.80;;;;;;4258895;27;20043;-66
2021/04/17 14:43:08;;;;;;;10.35;6.10;;;15.60;37.20;;;;;;4259580;27;20043;-65
2021/04/17 14:45:11;;;;;;;8.95;5.38;;;15.50;37.90;;;;;;4265448;27;20134;-66
2021/04/17 14:47:12;;;;;;;12.25;5.95;;;15.90;38.90;;;;;;4268802;27;20075;-71
2021/04/17 14:49:15;;;;;;;8.45;4.78;;;15.70;37.10;;;;;;4265328;27;20521;-66
2021/04/17 14:51:17;;;;;;;6.88;4.43;;;15.70;35.40;;;;;;4262772;27;20412;-65
2021/04/17 14:53:18;;;;;;;10.15;5.28;;;15.80;34.80;;;;;;4258822;27;20080;-65
2021/04/17 14:55:29;;;;;;;10.35;4.93;;;15.40;35.00;;;;;;4260608;27;20045;-68
2021/04/17 14:57:31;;;;;;;21.75;6.03;;;15.70;35.80;;;;;;4263349;27;20122;-68
2021/04/17 14:59:53;;;;;;;12.27;5.30;;;15.60;35.60;;;;;;4259329;27;20107;-66
2021/04/17 15:01:55;;;;;;;8.93;5.53;;;15.90;36.80;;;;;;4258503;27;20119;-66
2021/04/17 15:03:57;;;;;;;14.05;5.28;;;15.30;35.30;;;;;;4263834;27;20405;-66
2021/04/17 15:06:00;;;;;;;7.93;5.07;;;15.40;35.60;;;;;;4264090;27;20099;-69
2021/04/17 15:08:02;;;;;;;11.90;4.35;;;15.80;36.30;;;;;;4263970;27;20046;-65
2021/04/17 15:10:05;;;;;;;26.27;6.05;;;16.10;37.00;;;;;;4259357;27;20038;-65
2021/04/17 15:12:07;;;;;;;13.10;6.07;;;16.30;35.20;;;;;;4257664;27;20801;-67
2021/04/17 15:14:10;;;;;;;13.70;5.30;;;16.00;36.00;;;;;;4258797;27;20039;-65
2021/04/17 15:16:12;;;;;;;12.88;5.43;;;15.80;35.90;;;;;;4257508;27;20043;-68
2021/04/17 15:18:14;;;;;;;6.88;4.70;;;15.90;36.70;;;;;;4261287;27;20039;-67
2021/04/17 15:20:16;;;;;;;20.33;5.78;;;15.50;36.50;;;;;;4257293;27;20398;-67
2021/04/17 15:22:20;;;;;;;16.02;6.03;;;15.60;37.30;;;;;;4260852;27;20055;-65
2021/04/17 15:24:22;;;;;;;19.50;6.03;;;15.70;37.20;;;;;;4260372;27;20045;-65
2021/04/17 15:26:26;;;;;;;10.98;5.40;;;15.90;36.90;;;;;;4259620;27;20039;-65
2021/04/17 15:28:30;;;;;;;11.80;5.28;;;15.80;36.90;;;;;;4264923;27;20508;-69
2021/04/17 15:30:32;;;;;;;15.00;5.70;;;16.10;36.40;;;;;;4262334;27;20106;-64
2021/04/17 15:32:37;;;;;;;17.88;5.43;;;16.00;36.70;;;;;;4262788;27;20050;-68
2021/04/17 15:34:56;;;;;;;9.88;5.22;;;16.10;37.80;;;;;;4251201;27;20104;-66
2021/04/17 15:36:58;;;;;;;10.35;5.60;;;15.80;37.30;;;;;;4264174;27;20533;-67
2021/04/17 15:39:02;;;;;;;16.63;6.05;;;15.70;39.20;;;;;;4264169;27;20045;-66
2021/04/17 15:41:06;;;;;;;11.38;6.32;;;15.70;38.80;;;;;;4262262;27;20076;-66
2021/04/17 15:43:09;;;;;;;14.77;5.68;;;15.70;38.00;;;;;;4260029;27;20500;-65
2021/04/17 15:45:13;;;;;;;15.57;5.45;;;16.10;38.30;;;;;;4260088;27;20129;-69
2021/04/17 15:47:15;;;;;;;12.27;6.03;;;15.60;36.80;;;;;;4256219;27;20039;-67
2021/04/17 15:49:18;;;;;;;15.70;5.20;;;15.30;37.20;;;;;;4262698;27;20050;-69
2021/04/17 15:51:20;;;;;;;16.35;5.03;;;15.30;38.10;;;;;;4259341;27;20054;-67
2021/04/17 15:53:22;;;;;;;10.80;5.68;;;15.20;38.00;;;;;;4259157;27;20031;-68
2021/04/17 15:55:42;;;;;;;17.75;7.22;;;15.50;38.10;;;;;;4261054;27;20046;-73
2021/04/17 15:58:10;;;;;;;13.63;5.70;;;15.50;37.90;;;;;;4256493;27;20050;-69
2021/04/17 16:16:13;;;;;;;10.10;5.38;;;15.70;38.00;;;;;;4257478;27;20046;-71
2021/04/17 16:18:15;;;;;;;8.65;5.13;;;15.00;37.70;;;;;;4260578;27;20043;-69
2021/04/17 16:20:16;;;;;;;14.43;6.07;;;15.40;39.50;;;;;;4244633;27;20051;-69
2021/04/17 16:22:19;;;;;;;9.10;5.53;;;15.20;39.50;;;;;;4262208;27;20043;-70
2021/04/17 16:24:21;;;;;;;10.75;6.03;;;15.10;38.90;;;;;;4265145;27;20045;-68
2021/04/17 16:26:24;;;;;;;12.10;5.70;;;15.30;38.70;;;;;;4265125;27;20043;-67
2021/04/17 16:28:29;;;;;;;13.52;5.20;;;15.10;38.10;;;;;;4262610;27;20047;-67
2021/04/17 16:30:31;;;;;;;8.88;5.55;;;15.10;38.20;;;;;;4261439;27;20042;-70
2021/04/17 16:32:33;;;;;;;12.02;4.50;;;15.20;38.30;;;;;;4257485;27;20429;-69
2021/04/17 16:34:35;;;;;;;11.95;6.03;;;15.70;38.80;;;;;;4239674;27;20054;-69
2021/04/17 16:36:38;;;;;;;8.90;5.57;;;15.80;36.80;;;;;;4258140;27;20135;-67
2021/04/17 16:38:41;;;;;;;10.10;5.38;;;15.50;36.90;;;;;;4261158;27;20053;-69
2021/04/17 16:40:43;;;;;;;9.57;5.57;;;15.50;37.40;;;;;;4259883;27;20055;-68
2021/04/17 16:42:45;;;;;;;13.30;5.82;;;15.50;37.70;;;;;;4257331;27;20054;-73
2021/04/17 16:44:48;;;;;;;15.75;6.63;;;15.40;38.80;;;;;;4256831;27;20053;-71
2021/04/17 16:46:50;;;;;;;12.18;5.82;;;15.40;37.80;;;;;;4263073;27;20082;-71
2021/04/17 16:48:52;;;;;;;8.88;4.63;;;14.80;37.40;;;;;;4257079;27;20451;-70
2021/04/17 16:50:55;;;;;;;11.75;6.45;;;15.10;38.10;;;;;;4259154;27;20045;-70
2021/04/17 16:52:57;;;;;;;11.85;6.65;;;15.10;37.60;;;;;;4264885;27;20046;-70
2021/04/17 16:54:59;;;;;;;14.27;5.65;;;15.00;37.60;;;;;;4244933;27;20084;-70
2021/04/17 16:57:02;;;;;;;13.07;6.68;;;15.00;37.30;;;;;;4261072;27;20108;-71
2021/04/17 16:59:04;;;;;;;11.65;6.43;;;14.80;37.60;;;;;;4251483;27;20080;-68
2021/04/17 17:01:06;;;;;;;9.73;5.35;;;14.70;37.80;;;;;;4258757;27;20053;-68
2021/04/17 17:03:08;;;;;;;12.45;5.60;;;14.60;38.20;;;;;;4253675;27;20078;-69
2021/04/17 17:05:29;;;;;;;8.55;5.60;;;14.60;38.80;;;;;;4249766;27;20053;-68
2021/04/17 17:07:31;;;;;;;9.27;5.70;;;14.50;38.20;;;;;;4255722;27;20053;-68
2021/04/17 17:09:33;;;;;;;8.50;4.70;;;14.60;38.30;;;;;;4254452;27;20103;-69
2021/04/17 17:11:35;;;;;;;12.52;5.07;;;14.90;39.80;;;;;;4263016;27;20047;-68
2021/04/17 17:13:36;;;;;;;9.98;5.63;;;15.00;39.40;;;;;;4266494;27;20053;-67
2021/04/17 17:15:39;;;;;;;7.65;5.18;;;15.20;39.30;;;;;;4250474;27;20039;-68
2021/04/17 17:17:53;;;;;;;9.98;5.57;;;15.10;39.30;;;;;;4264854;27;20133;-74
2021/04/17 17:19:55;;;;;;;10.10;5.38;;;15.20;38.70;;;;;;4248503;27;20130;-70
2021/04/17 17:22:14;;;;;;;9.15;6.25;;;15.00;38.60;;;;;;4258328;27;20046;-70
2021/04/17 17:24:16;;;;;;;9.73;4.57;;;15.00;38.70;;;;;;4266259;27;20047;-70
2021/04/17 17:26:18;;;;;;;9.13;5.05;;;15.20;39.20;;;;;;4266200;27;20524;-67
2021/04/17 17:28:20;;;;;;;11.65;4.10;;;14.90;38.80;;;;;;4246068;27;20070;-71
2021/04/17 17:30:22;;;;;;;14.32;5.25;;;15.30;39.40;;;;;;4263989;27;20087;-68
2021/04/17 17:32:24;;;;;;;10.18;5.85;;;15.00;40.30;;;;;;4264616;27;20519;-67
2021/04/17 17:34:27;;;;;;;11.07;5.55;;;14.80;39.20;;;;;;4263595;27;20049;-70
2021/04/17 17:36:29;;;;;;;10.45;5.35;;;14.80;39.60;;;;;;4266015;27;20116;-70
2021/04/17 17:38:31;;;;;;;7.93;5.35;;;14.70;39.10;;;;;;4263865;27;20043;-74
2021/04/17 17:40:34;;;;;;;8.32;4.55;;;14.40;39.10;;;;;;4258289;27;20435;-68
2021/04/17 17:42:36;;;;;;;10.15;5.03;;;14.80;40.20;;;;;;4264587;27;20478;-68
2021/04/17 17:44:38;;;;;;;7.68;5.60;;;14.60;39.20;;;;;;4252162;27;20049;-70
2021/04/17 17:46:41;;;;;;;8.43;5.13;;;14.50;39.50;;;;;;4264172;27;20058;-71
2021/04/17 17:48:43;;;;;;;8.48;5.30;;;14.60;39.80;;;;;;4247923;27;20058;-67
2021/04/17 17:50:45;;;;;;;15.38;5.80;;;14.50;39.90;;;;;;4260761;27;20492;-69
2021/04/17 17:52:48;;;;;;;9.25;5.50;;;14.60;39.70;;;;;;4253065;27;20035;-76
2021/04/17 17:54:50;;;;;;;6.95;4.47;;;14.50;39.80;;;;;;4251941;27;20085;-68
2021/04/17 17:56:52;;;;;;;6.65;4.70;;;14.80;40.50;;;;;;4272592;27;20043;-69
2021/04/17 17:58:53;;;;;;;11.10;5.80;;;15.00;39.80;;;;;;4268792;27;20064;-69
2021/04/17 18:00:55;;;;;;;10.70;6.60;;;14.50;39.60;;;;;;4257817;27;20544;-68
